sensor_id;sensor_type;location;lat;lon;timestamp;pressure;altitude;pressure_sealevel;temperature;humidity
74893;BME280;63446;56.272;43.922;2023-06-24T00:01:00;100345.25;;;17.95;56.91
74893;BME280;63446;56.272;43.922;2023-06-24T00:03:26;100348.56;;;17.92;56.97
74893;BME280;63446;56.272;43.922;2023-06-24T00:05:52;100347.63;;;17.88;56.93
74893;BME280;63446;56.272;43.922;2023-06-24T00:08:19;100336.00;;;17.84;57.11
74893;BME280;63446;56.272;43.922;2023-06-24T00:10:46;100343.09;;;17.80;57.20
74893;BME280;63446;56.272;43.922;2023-06-24T00:13:13;100335.22;;;17.75;57.10
74893;BME280;63446;56.272;43.922;2023-06-24T00:15:40;100333.13;;;17.72;56.94
74893;BME280;63446;56.272;43.922;2023-06-24T00:18:10;100320.88;;;17.71;56.83
74893;BME280;63446;56.272;43.922;2023-06-24T00:20:36;100329.53;;;17.68;56.67
74893;BME280;63446;56.272;43.922;2023-06-24T00:23:02;100321.84;;;17.66;56.26
74893;BME280;63446;56.272;43.922;2023-06-24T00:25:29;100322.16;;;17.65;55.84
74893;BME280;63446;56.272;43.922;2023-06-24T00:27:54;100310.38;;;17.66;56.00
74893;BME280;63446;56.272;43.922;2023-06-24T00:30:22;100318.06;;;17.67;55.67
74893;BME280;63446;56.272;43.922;2023-06-24T00:32:48;100311.63;;;17.68;55.30
74893;BME280;63446;56.272;43.922;2023-06-24T00:35:14;100312.41;;;17.69;55.60
74893;BME280;63446;56.272;43.922;2023-06-24T00:37:41;100317.44;;;17.70;55.36
74893;BME280;63446;56.272;43.922;2023-06-24T00:40:08;100310.97;;;17.71;55.28
74893;BME280;63446;56.272;43.922;2023-06-24T00:42:37;100311.75;;;17.72;54.89
74893;BME280;63446;56.272;43.922;2023-06-24T00:45:04;100309.91;;;17.72;55.14
74893;BME280;63446;56.272;43.922;2023-06-24T00:47:31;100307.22;;;17.72;55.12
74893;BME280;63446;56.272;43.922;2023-06-24T00:49:58;100314.91;;;17.74;55.39
74893;BME280;63446;56.272;43.922;2023-06-24T00:52:24;100316.50;;;17.75;55.10
74893;BME280;63446;56.272;43.922;2023-06-24T00:54:49;100308.78;;;17.73;55.25
74893;BME280;63446;56.272;43.922;2023-06-24T00:57:17;100310.34;;;17.74;55.40
74893;BME280;63446;56.272;43.922;2023-06-24T00:59:44;100313.97;;;17.78;55.68
74893;BME280;63446;56.272;43.922;2023-06-24T01:02:11;100304.84;;;17.79;55.51
74893;BME280;63446;56.272;43.922;2023-06-24T01:04:37;100312.56;;;17.81;55.23
74893;BME280;63446;56.272;43.922;2023-06-24T01:07:05;100316.19;;;17.85;55.44
74893;BME280;63446;56.272;43.922;2023-06-24T01:09:31;100313.97;;;17.87;55.02
74893;BME280;63446;56.272;43.922;2023-06-24T01:11:58;100307.97;;;17.90;54.97
74893;BME280;63446;56.272;43.922;2023-06-24T01:14:24;100307.34;;;17.93;54.94
74893;BME280;63446;56.272;43.922;2023-06-24T01:16:57;100304.50;;;17.98;55.15
74893;BME280;63446;56.272;43.922;2023-06-24T01:22:48;100308.75;;;17.99;54.24
74893;BME280;63446;56.272;43.922;2023-06-24T01:33:26;100326.53;;;17.87;54.38
74893;BME280;63446;56.272;43.922;2023-06-24T01:35:55;100323.09;;;17.86;54.40
74893;BME280;63446;56.272;43.922;2023-06-24T01:38:26;100329.53;;;17.85;54.18
74893;BME280;63446;56.272;43.922;2023-06-24T01:40:56;100327.19;;;17.84;54.08
74893;BME280;63446;56.272;43.922;2023-06-24T01:43:23;100323.72;;;17.83;54.19
74893;BME280;63446;56.272;43.922;2023-06-24T01:45:51;100319.81;;;17.80;54.48
74893;BME280;63446;56.272;43.922;2023-06-24T01:48:23;100322.78;;;17.79;54.76
74893;BME280;63446;56.272;43.922;2023-06-24T01:50:58;100306.13;;;17.82;54.50
74893;BME280;63446;56.272;43.922;2023-06-24T01:53:28;100313.50;;;17.85;54.81
74893;BME280;63446;56.272;43.922;2023-06-24T01:55:59;100321.34;;;17.90;54.61
74893;BME280;63446;56.272;43.922;2023-06-24T01:58:27;100310.16;;;17.97;54.40
74893;BME280;63446;56.272;43.922;2023-06-24T02:00:54;100304.03;;;17.96;54.14
74893;BME280;63446;56.272;43.922;2023-06-24T02:03:21;100311.72;;;17.98;54.13
74893;BME280;63446;56.272;43.922;2023-06-24T02:05:49;100310.16;;;17.97;53.97
74893;BME280;63446;56.272;43.922;2023-06-24T02:08:20;100305.78;;;17.92;53.93
74893;BME280;63446;56.272;43.922;2023-06-24T02:10:48;100306.91;;;17.91;54.03
74893;BME280;63446;56.272;43.922;2023-06-24T02:13:15;100311.44;;;17.91;54.26
74893;BME280;63446;56.272;43.922;2023-06-24T02:15:42;100313.31;;;17.90;54.56
74893;BME280;63446;56.272;43.922;2023-06-24T02:18:10;100309.09;;;17.89;54.39
74893;BME280;63446;56.272;43.922;2023-06-24T02:20:38;100312.53;;;17.90;54.52
74893;BME280;63446;56.272;43.922;2023-06-24T02:23:06;100312.53;;;17.90;54.75
74893;BME280;63446;56.272;43.922;2023-06-24T02:25:35;100322.94;;;17.91;54.44
74893;BME280;63446;56.272;43.922;2023-06-24T02:28:06;100321.69;;;17.89;54.24
74893;BME280;63446;56.272;43.922;2023-06-24T02:30:35;100321.19;;;17.87;54.11
74893;BME280;63446;56.272;43.922;2023-06-24T02:33:02;100323.09;;;17.86;54.17
74893;BME280;63446;56.272;43.922;2023-06-24T02:35:28;100322.31;;;17.86;54.18
74893;BME280;63446;56.272;43.922;2023-06-24T02:37:54;100332.66;;;17.87;54.48
74893;BME280;63446;56.272;43.922;2023-06-24T02:40:20;100328.59;;;17.90;54.69
74893;BME280;63446;56.272;43.922;2023-06-24T02:42:46;100332.81;;;17.91;54.66
74893;BME280;63446;56.272;43.922;2023-06-24T02:45:12;100332.53;;;17.92;54.81
74893;BME280;63446;56.272;43.922;2023-06-24T02:47:38;100334.09;;;17.93;55.08
74893;BME280;63446;56.272;43.922;2023-06-24T02:50:05;100330.63;;;17.93;54.70
74893;BME280;63446;56.272;43.922;2023-06-24T02:52:34;100333.31;;;17.93;55.48
74893;BME280;63446;56.272;43.922;2023-06-24T02:55:03;100332.66;;;17.96;55.77
74893;BME280;63446;56.272;43.922;2023-06-24T02:57:31;100336.56;;;17.98;55.14
74893;BME280;63446;56.272;43.922;2023-06-24T03:00:27;100339.25;;;17.98;55.08
74893;BME280;63446;56.272;43.922;2023-06-24T03:03:10;100339.25;;;17.98;54.59
74893;BME280;63446;56.272;43.922;2023-06-24T03:05:44;100346.03;;;17.96;55.10
74893;BME280;63446;56.272;43.922;2023-06-24T03:08:11;100346.34;;;17.94;54.87
74893;BME280;63446;56.272;43.922;2023-06-24T03:10:38;100348.56;;;17.92;55.13
74893;BME280;63446;56.272;43.922;2023-06-24T03:13:06;100344.47;;;17.86;55.26
74893;BME280;63446;56.272;43.922;2023-06-24T03:15:41;100345.28;;;17.78;55.71
74893;BME280;63446;56.272;43.922;2023-06-24T03:18:08;100349.16;;;17.72;56.51
74893;BME280;63446;56.272;43.922;2023-06-24T03:20:34;100349.19;;;17.63;57.00
74893;BME280;63446;56.272;43.922;2023-06-24T03:23:08;100347.31;;;17.55;57.36
74893;BME280;63446;56.272;43.922;2023-06-24T03:25:36;100346.84;;;17.44;57.32
74893;BME280;63446;56.272;43.922;2023-06-24T03:28:02;100348.41;;;17.37;58.01
74893;BME280;63446;56.272;43.922;2023-06-24T03:30:38;100333.78;;;17.25;58.24
74893;BME280;63446;56.272;43.922;2023-06-24T03:33:04;100353.09;;;17.14;58.49
74893;BME280;63446;56.272;43.922;2023-06-24T03:35:31;100345.88;;;17.05;58.93
74893;BME280;63446;56.272;43.922;2023-06-24T03:38:01;100338.00;;;16.92;59.50
74893;BME280;63446;56.272;43.922;2023-06-24T03:40:27;100348.81;;;16.78;59.80
74893;BME280;63446;56.272;43.922;2023-06-24T03:42:53;100348.88;;;16.64;60.51
74893;BME280;63446;56.272;43.922;2023-06-24T03:45:19;100352.63;;;16.54;60.75
74893;BME280;63446;56.272;43.922;2023-06-24T03:47:45;100351.81;;;16.45;61.41
74893;BME280;63446;56.272;43.922;2023-06-24T03:50:12;100363.22;;;16.37;61.71
74893;BME280;63446;56.272;43.922;2023-06-24T03:52:38;100354.41;;;16.28;62.10
74893;BME280;63446;56.272;43.922;2023-06-24T03:55:04;100365.50;;;16.21;62.26
74893;BME280;63446;56.272;43.922;2023-06-24T03:57:31;100358.72;;;16.15;62.60
74893;BME280;63446;56.272;43.922;2023-06-24T03:59:58;100361.81;;;16.08;62.98
74893;BME280;63446;56.272;43.922;2023-06-24T04:02:24;100360.81;;;15.96;63.59
74893;BME280;63446;56.272;43.922;2023-06-24T04:04:50;100361.69;;;15.91;63.69
74893;BME280;63446;56.272;43.922;2023-06-24T04:07:18;100355.06;;;15.80;64.42
74893;BME280;63446;56.272;43.922;2023-06-24T04:09:55;100353.28;;;15.75;64.54
74893;BME280;63446;56.272;43.922;2023-06-24T04:12:22;100365.97;;;15.70;65.15
74893;BME280;63446;56.272;43.922;2023-06-24T04:14:48;100351.78;;;15.60;65.44
74893;BME280;63446;56.272;43.922;2023-06-24T04:17:15;100354.25;;;15.57;65.91
74893;BME280;63446;56.272;43.922;2023-06-24T04:19:41;100350.72;;;15.48;65.87
74893;BME280;63446;56.272;43.922;2023-06-24T04:22:08;100343.25;;;15.36;66.16
74893;BME280;63446;56.272;43.922;2023-06-24T04:24:34;100341.00;;;15.29;66.37
74893;BME280;63446;56.272;43.922;2023-06-24T04:27:00;100343.31;;;15.22;66.90
74893;BME280;63446;56.272;43.922;2023-06-24T04:29:28;100342.41;;;15.13;67.20
74893;BME280;63446;56.272;43.922;2023-06-24T04:31:54;100349.94;;;15.11;67.40
74893;BME280;63446;56.272;43.922;2023-06-24T04:34:21;100346.56;;;15.05;67.86
74893;BME280;63446;56.272;43.922;2023-06-24T04:36:48;100343.44;;;15.03;67.97
74893;BME280;63446;56.272;43.922;2023-06-24T04:39:13;100333.56;;;15.04;68.23
74893;BME280;63446;56.272;43.922;2023-06-24T04:41:40;100347.47;;;15.01;68.18
74893;BME280;63446;56.272;43.922;2023-06-24T04:44:06;100344.41;;;14.94;68.41
74893;BME280;63446;56.272;43.922;2023-06-24T04:46:32;100344.41;;;14.94;68.43
74893;BME280;63446;56.272;43.922;2023-06-24T04:48:59;100341.75;;;14.94;68.47
74893;BME280;63446;56.272;43.922;2023-06-24T04:51:25;100337.34;;;14.89;68.55
74893;BME280;63446;56.272;43.922;2023-06-24T04:53:51;100337.94;;;14.86;68.73
74893;BME280;63446;56.272;43.922;2023-06-24T04:56:16;100337.25;;;14.80;68.95
74893;BME280;63446;56.272;43.922;2023-06-24T04:58:43;100333.41;;;14.73;69.18
74893;BME280;63446;56.272;43.922;2023-06-24T05:01:09;100330.84;;;14.68;69.48
74893;BME280;63446;56.272;43.922;2023-06-24T05:03:35;100333.03;;;14.65;69.58
74893;BME280;63446;56.272;43.922;2023-06-24T05:06:01;100328.28;;;14.62;69.85
74893;BME280;63446;56.272;43.922;2023-06-24T05:08:27;100331.84;;;14.58;69.96
74893;BME280;63446;56.272;43.922;2023-06-24T05:10:53;100325.44;;;14.59;70.05
74893;BME280;63446;56.272;43.922;2023-06-24T05:13:19;100331.66;;;14.54;70.37
74893;BME280;63446;56.272;43.922;2023-06-24T05:15:45;100327.91;;;14.55;70.34
74893;BME280;63446;56.272;43.922;2023-06-24T05:18:11;100331.34;;;14.56;70.32
74893;BME280;63446;56.272;43.922;2023-06-24T05:20:36;100327.22;;;14.50;70.60
74893;BME280;63446;56.272;43.922;2023-06-24T05:23:02;100335.75;;;14.47;70.56
74893;BME280;63446;56.272;43.922;2023-06-24T05:25:28;100330.13;;;14.48;70.51
74893;BME280;63446;56.272;43.922;2023-06-24T05:27:54;100323.03;;;14.44;70.60
74893;BME280;63446;56.272;43.922;2023-06-24T05:30:19;100324.91;;;14.43;70.73
74893;BME280;63446;56.272;43.922;2023-06-24T05:32:46;100323.34;;;14.42;70.96
74893;BME280;63446;56.272;43.922;2023-06-24T05:35:12;100324.72;;;14.39;70.94
74893;BME280;63446;56.272;43.922;2023-06-24T05:37:39;100303.81;;;14.33;70.81
74893;BME280;63446;56.272;43.922;2023-06-24T05:40:05;100321.75;;;14.41;70.79
74893;BME280;63446;56.272;43.922;2023-06-24T05:42:32;100327.88;;;14.41;70.91
74893;BME280;63446;56.272;43.922;2023-06-24T05:44:59;100326.47;;;14.44;70.97
74893;BME280;63446;56.272;43.922;2023-06-24T05:47:25;100330.44;;;14.47;70.92
74893;BME280;63446;56.272;43.922;2023-06-24T05:49:51;100323.53;;;14.46;71.11
74893;BME280;63446;56.272;43.922;2023-06-24T05:52:16;100319.50;;;14.48;70.97
74893;BME280;63446;56.272;43.922;2023-06-24T05:54:42;100322.44;;;14.47;71.10
74893;BME280;63446;56.272;43.922;2023-06-24T05:57:08;100319.00;;;14.46;70.99
74893;BME280;63446;56.272;43.922;2023-06-24T05:59:35;100305.78;;;14.41;71.20
74893;BME280;63446;56.272;43.922;2023-06-24T06:02:01;100313.78;;;14.41;71.30
74893;BME280;63446;56.272;43.922;2023-06-24T06:04:28;100322.25;;;14.43;71.12
74893;BME280;63446;56.272;43.922;2023-06-24T06:06:54;100329.72;;;14.41;71.15
74893;BME280;63446;56.272;43.922;2023-06-24T06:09:21;100313.19;;;14.44;71.31
74893;BME280;63446;56.272;43.922;2023-06-24T06:11:47;100317.25;;;14.41;71.36
74893;BME280;63446;56.272;43.922;2023-06-24T06:14:13;100316.44;;;14.41;71.46
74893;BME280;63446;56.272;43.922;2023-06-24T06:16:39;100313.13;;;14.49;71.31
74893;BME280;63446;56.272;43.922;2023-06-24T06:19:05;100317.84;;;14.52;71.27
74893;BME280;63446;56.272;43.922;2023-06-24T06:21:31;100321.00;;;14.54;70.99
74893;BME280;63446;56.272;43.922;2023-06-24T06:23:57;100309.00;;;14.57;70.92
74893;BME280;63446;56.272;43.922;2023-06-24T06:26:23;100307.41;;;14.56;70.98
74893;BME280;63446;56.272;43.922;2023-06-24T06:28:49;100305.25;;;14.58;71.16
74893;BME280;63446;56.272;43.922;2023-06-24T06:31:16;100317.75;;;14.57;71.16
74893;BME280;63446;56.272;43.922;2023-06-24T06:33:43;100314.00;;;14.58;71.05
74893;BME280;63446;56.272;43.922;2023-06-24T06:36:09;100306.22;;;14.62;71.04
74893;BME280;63446;56.272;43.922;2023-06-24T06:38:36;100308.50;;;14.69;71.12
74893;BME280;63446;56.272;43.922;2023-06-24T06:41:02;100311.16;;;14.69;70.88
74893;BME280;63446;56.272;43.922;2023-06-24T06:43:28;100301.59;;;14.68;71.08
74893;BME280;63446;56.272;43.922;2023-06-24T06:45:53;100314.28;;;14.71;70.75
74893;BME280;63446;56.272;43.922;2023-06-24T06:48:19;100318.25;;;14.73;70.82
74893;BME280;63446;56.272;43.922;2023-06-24T06:50:45;100318.91;;;14.79;70.67
74893;BME280;63446;56.272;43.922;2023-06-24T06:53:12;100312.41;;;14.85;70.46
74893;BME280;63446;56.272;43.922;2023-06-24T06:55:37;100310.03;;;14.83;70.44
74893;BME280;63446;56.272;43.922;2023-06-24T06:58:05;100320.00;;;14.78;70.50
74893;BME280;63446;56.272;43.922;2023-06-24T07:00:31;100316.44;;;14.82;70.26
74893;BME280;63446;56.272;43.922;2023-06-24T07:02:57;100315.06;;;14.85;70.51
74893;BME280;63446;56.272;43.922;2023-06-24T07:05:23;100318.13;;;14.92;70.49
74893;BME280;63446;56.272;43.922;2023-06-24T07:07:49;100324.13;;;14.98;70.25
74893;BME280;63446;56.272;43.922;2023-06-24T07:10:16;100334.66;;;15.03;70.87
74893;BME280;63446;56.272;43.922;2023-06-24T07:12:45;100333.84;;;15.02;70.90
74893;BME280;63446;56.272;43.922;2023-06-24T07:15:11;100344.03;;;15.00;70.41
74893;BME280;63446;56.272;43.922;2023-06-24T07:17:37;100344.31;;;14.99;70.53
74893;BME280;63446;56.272;43.922;2023-06-24T07:20:03;100320.88;;;14.87;70.61
74893;BME280;63446;56.272;43.922;2023-06-24T07:22:31;100335.56;;;14.84;70.75
74893;BME280;63446;56.272;43.922;2023-06-24T07:24:57;100335.97;;;14.78;70.91
74893;BME280;63446;56.272;43.922;2023-06-24T07:27:23;100310.53;;;14.72;71.14
74893;BME280;63446;56.272;43.922;2023-06-24T07:29:49;100328.97;;;14.68;71.23
74893;BME280;63446;56.272;43.922;2023-06-24T07:32:15;100348.97;;;14.65;71.38
74893;BME280;63446;56.272;43.922;2023-06-24T07:34:41;100338.63;;;14.64;71.38
74893;BME280;63446;56.272;43.922;2023-06-24T07:37:07;100354.00;;;14.67;71.56
74893;BME280;63446;56.272;43.922;2023-06-24T07:39:32;100346.00;;;14.67;71.40
74893;BME280;63446;56.272;43.922;2023-06-24T07:41:58;100336.16;;;14.68;71.57
74893;BME280;63446;56.272;43.922;2023-06-24T07:44:24;100357.63;;;14.71;71.55
74893;BME280;63446;56.272;43.922;2023-06-24T07:46:50;100347.41;;;14.64;71.68
74893;BME280;63446;56.272;43.922;2023-06-24T07:49:18;100346.81;;;14.68;71.73
74893;BME280;63446;56.272;43.922;2023-06-24T07:51:43;100365.34;;;14.73;71.85
74893;BME280;63446;56.272;43.922;2023-06-24T07:54:11;100355.09;;;14.80;71.75
74893;BME280;63446;56.272;43.922;2023-06-24T07:56:37;100357.06;;;14.88;71.53
74893;BME280;63446;56.272;43.922;2023-06-24T07:59:03;100361.16;;;14.94;71.38
74893;BME280;63446;56.272;43.922;2023-06-24T08:01:29;100351.03;;;14.96;71.20
74893;BME280;63446;56.272;43.922;2023-06-24T08:03:55;100359.69;;;15.02;71.31
74893;BME280;63446;56.272;43.922;2023-06-24T08:06:21;100348.94;;;15.07;71.04
74893;BME280;63446;56.272;43.922;2023-06-24T08:08:47;100368.84;;;15.09;71.06
74893;BME280;63446;56.272;43.922;2023-06-24T08:11:13;100369.53;;;15.15;70.78
74893;BME280;63446;56.272;43.922;2023-06-24T08:13:39;100352.16;;;15.18;70.61
74893;BME280;63446;56.272;43.922;2023-06-24T08:16:05;100357.09;;;15.24;70.59
74893;BME280;63446;56.272;43.922;2023-06-24T08:18:31;100354.63;;;15.28;70.46
74893;BME280;63446;56.272;43.922;2023-06-24T08:20:57;100367.53;;;15.34;70.52
74893;BME280;63446;56.272;43.922;2023-06-24T08:23:23;100356.56;;;15.36;70.16
74893;BME280;63446;56.272;43.922;2023-06-24T08:25:48;100357.84;;;15.38;69.99
74893;BME280;63446;56.272;43.922;2023-06-24T08:28:14;100346.41;;;15.38;69.77
74893;BME280;63446;56.272;43.922;2023-06-24T08:30:40;100360.97;;;15.41;69.79
74893;BME280;63446;56.272;43.922;2023-06-24T08:33:06;100355.97;;;15.39;69.67
74893;BME280;63446;56.272;43.922;2023-06-24T08:35:32;100350.44;;;15.49;69.09
74893;BME280;63446;56.272;43.922;2023-06-24T08:37:58;100336.38;;;15.57;69.20
74893;BME280;63446;56.272;43.922;2023-06-24T08:40:24;100352.13;;;15.68;69.12
74893;BME280;63446;56.272;43.922;2023-06-24T08:42:50;100338.91;;;15.76;68.87
74893;BME280;63446;56.272;43.922;2023-06-24T08:45:16;100356.31;;;15.82;68.44
74893;BME280;63446;56.272;43.922;2023-06-24T08:47:42;100348.88;;;15.93;68.15
74893;BME280;63446;56.272;43.922;2023-06-24T08:50:11;100385.44;;;16.01;67.67
74893;BME280;63446;56.272;43.922;2023-06-24T08:52:42;100357.28;;;16.09;67.28
74893;BME280;63446;56.272;43.922;2023-06-24T08:55:13;100349.13;;;16.14;66.70
74893;BME280;63446;56.272;43.922;2023-06-24T08:57:39;100347.47;;;16.18;66.67
74893;BME280;63446;56.272;43.922;2023-06-24T09:00:06;100353.84;;;16.17;66.55
74893;BME280;63446;56.272;43.922;2023-06-24T09:02:37;100363.31;;;16.23;66.68
74893;BME280;63446;56.272;43.922;2023-06-24T09:05:05;100371.16;;;16.28;66.54
74893;BME280;63446;56.272;43.922;2023-06-24T09:07:31;100368.69;;;16.32;66.26
74893;BME280;63446;56.272;43.922;2023-06-24T09:09:57;100373.56;;;16.30;66.32
74893;BME280;63446;56.272;43.922;2023-06-24T09:12:24;100362.25;;;16.33;66.22
74893;BME280;63446;56.272;43.922;2023-06-24T09:14:54;100370.75;;;16.35;66.04
74893;BME280;63446;56.272;43.922;2023-06-24T09:17:20;100361.63;;;16.36;66.24
74893;BME280;63446;56.272;43.922;2023-06-24T09:19:51;100358.19;;;16.35;66.38
74893;BME280;63446;56.272;43.922;2023-06-24T09:22:17;100363.34;;;16.32;66.54
74893;BME280;63446;56.272;43.922;2023-06-24T09:24:45;100361.78;;;16.31;66.67
74893;BME280;63446;56.272;43.922;2023-06-24T09:27:14;100368.22;;;16.30;67.01
74893;BME280;63446;56.272;43.922;2023-06-24T09:30:39;100368.81;;;16.27;66.73
74893;BME280;63446;56.272;43.922;2023-06-24T09:32:58;100379.34;;;16.32;66.77
74893;BME280;63446;56.272;43.922;2023-06-24T09:35:25;100378.59;;;16.40;66.82
74893;BME280;63446;56.272;43.922;2023-06-24T09:37:55;100381.47;;;16.52;66.56
74893;BME280;63446;56.272;43.922;2023-06-24T09:40:23;100378.41;;;16.68;66.23
74893;BME280;63446;56.272;43.922;2023-06-24T09:42:58;100364.22;;;16.90;66.06
74893;BME280;63446;56.272;43.922;2023-06-24T09:45:27;100385.00;;;17.19;65.63
74893;BME280;63446;56.272;43.922;2023-06-24T09:47:55;100388.03;;;17.43;64.73
74893;BME280;63446;56.272;43.922;2023-06-24T09:50:21;100375.63;;;17.65;63.93
74893;BME280;63446;56.272;43.922;2023-06-24T09:52:49;100360.03;;;17.93;63.44
74893;BME280;63446;56.272;43.922;2023-06-24T09:55:17;100363.75;;;18.18;62.53
74893;BME280;63446;56.272;43.922;2023-06-24T09:57:47;100368.22;;;18.43;61.86
74893;BME280;63446;56.272;43.922;2023-06-24T10:00:18;100355.22;;;18.63;60.98
74893;BME280;63446;56.272;43.922;2023-06-24T10:02:45;100375.50;;;18.81;60.21
74893;BME280;63446;56.272;43.922;2023-06-24T10:05:13;100360.91;;;18.99;59.96
74893;BME280;63446;56.272;43.922;2023-06-24T10:07:40;100367.59;;;19.14;59.54
74893;BME280;63446;56.272;43.922;2023-06-24T10:10:08;100365.69;;;19.36;59.22
74893;BME280;63446;56.272;43.922;2023-06-24T10:12:36;100374.56;;;19.48;58.04
74893;BME280;63446;56.272;43.922;2023-06-24T10:15:02;100367.38;;;19.61;57.33
74893;BME280;63446;56.272;43.922;2023-06-24T10:17:35;100367.06;;;19.63;56.80
74893;BME280;63446;56.272;43.922;2023-06-24T10:20:05;100369.00;;;19.74;56.85
74893;BME280;63446;56.272;43.922;2023-06-24T10:22:34;100365.16;;;19.84;56.72
74893;BME280;63446;56.272;43.922;2023-06-24T10:25:05;100377.31;;;19.82;55.85
74893;BME280;63446;56.272;43.922;2023-06-24T10:27:40;100363.25;;;19.85;55.80
74893;BME280;63446;56.272;43.922;2023-06-24T10:30:17;100363.94;;;19.94;55.92
74893;BME280;63446;56.272;43.922;2023-06-24T10:32:43;100362.84;;;20.07;55.81
74893;BME280;63446;56.272;43.922;2023-06-24T10:35:26;100376.63;;;20.18;55.67
74893;BME280;63446;56.272;43.922;2023-06-24T10:38:00;100381.78;;;20.23;55.10
74893;BME280;63446;56.272;43.922;2023-06-24T10:40:39;100371.72;;;20.32;54.88
74893;BME280;63446;56.272;43.922;2023-06-24T10:43:38;100385.63;;;20.46;54.38
74893;BME280;63446;56.272;43.922;2023-06-24T10:46:14;100395.72;;;20.62;53.90
74893;BME280;63446;56.272;43.922;2023-06-24T10:48:41;100376.69;;;20.67;52.79
74893;BME280;63446;56.272;43.922;2023-06-24T10:51:07;100395.41;;;20.76;52.69
74893;BME280;63446;56.272;43.922;2023-06-24T10:53:33;100378.03;;;20.85;52.65
74893;BME280;63446;56.272;43.922;2023-06-24T10:55:59;100376.31;;;21.05;52.43
74893;BME280;63446;56.272;43.922;2023-06-24T10:58:27;100381.47;;;21.23;52.21
74893;BME280;63446;56.272;43.922;2023-06-24T11:00:52;100374.28;;;21.39;51.58
74893;BME280;63446;56.272;43.922;2023-06-24T11:03:18;100388.59;;;21.43;51.03
74893;BME280;63446;56.272;43.922;2023-06-24T11:05:45;100393.03;;;21.51;50.27
74893;BME280;63446;56.272;43.922;2023-06-24T11:08:12;100378.47;;;21.52;50.07
74893;BME280;63446;56.272;43.922;2023-06-24T11:10:48;100369.41;;;21.57;49.83
74893;BME280;63446;56.272;43.922;2023-06-24T11:13:14;100363.00;;;21.61;49.97
74893;BME280;63446;56.272;43.922;2023-06-24T11:15:41;100370.81;;;21.66;50.33
74893;BME280;63446;56.272;43.922;2023-06-24T11:18:11;100376.53;;;21.65;50.28
74893;BME280;63446;56.272;43.922;2023-06-24T11:20:38;100380.00;;;21.65;49.94
74893;BME280;63446;56.272;43.922;2023-06-24T11:23:08;100371.75;;;21.58;50.28
74893;BME280;63446;56.272;43.922;2023-06-24T11:25:42;100390.03;;;21.53;50.17
74893;BME280;63446;56.272;43.922;2023-06-24T11:28:18;100384.66;;;21.40;50.11
74893;BME280;63446;56.272;43.922;2023-06-24T11:30:45;100379.53;;;21.35;50.29
74893;BME280;63446;56.272;43.922;2023-06-24T11:33:11;100369.69;;;21.27;50.55
74893;BME280;63446;56.272;43.922;2023-06-24T11:35:38;100364.09;;;21.20;50.67
74893;BME280;63446;56.272;43.922;2023-06-24T11:38:04;100369.81;;;21.18;50.73
74893;BME280;63446;56.272;43.922;2023-06-24T11:40:31;100373.50;;;21.14;50.56
74893;BME280;63446;56.272;43.922;2023-06-24T11:43:00;100387.75;;;21.14;50.28
74893;BME280;63446;56.272;43.922;2023-06-24T11:45:26;100370.63;;;21.07;50.40
74893;BME280;63446;56.272;43.922;2023-06-24T11:47:52;100369.06;;;20.93;50.29
74893;BME280;63446;56.272;43.922;2023-06-24T11:50:26;100377.78;;;20.90;50.53
74893;BME280;63446;56.272;43.922;2023-06-24T11:52:53;100380.50;;;20.78;50.60
74893;BME280;63446;56.272;43.922;2023-06-24T11:55:22;100385.41;;;20.52;50.53
74893;BME280;63446;56.272;43.922;2023-06-24T12:00:29;100390.63;;;20.36;50.86
74893;BME280;63446;56.272;43.922;2023-06-24T12:02:58;100378.75;;;20.24;50.91
74893;BME280;63446;56.272;43.922;2023-06-24T12:07:58;100392.22;;;19.91;51.06
74893;BME280;63446;56.272;43.922;2023-06-24T12:10:25;100378.38;;;19.68;51.36
74893;BME280;63446;56.272;43.922;2023-06-24T12:12:51;100368.88;;;19.50;51.77
74893;BME280;63446;56.272;43.922;2023-06-24T12:15:17;100370.72;;;19.37;52.38
74893;BME280;63446;56.272;43.922;2023-06-24T12:17:43;100385.63;;;19.26;52.71
74893;BME280;63446;56.272;43.922;2023-06-24T12:20:09;100381.63;;;19.32;52.63
74893;BME280;63446;56.272;43.922;2023-06-24T12:22:35;100377.44;;;19.43;52.72
74893;BME280;63446;56.272;43.922;2023-06-24T12:25:02;100376.41;;;19.57;52.49
74893;BME280;63446;56.272;43.922;2023-06-24T12:27:30;100401.53;;;19.73;51.85
74893;BME280;63446;56.272;43.922;2023-06-24T12:29:56;100368.25;;;19.86;51.02
74893;BME280;63446;56.272;43.922;2023-06-24T12:32:22;100374.78;;;19.97;50.81
74893;BME280;63446;56.272;43.922;2023-06-24T12:34:48;100381.00;;;19.89;50.96
74893;BME280;63446;56.272;43.922;2023-06-24T12:37:14;100373.84;;;19.81;50.82
74893;BME280;63446;56.272;43.922;2023-06-24T12:39:40;100376.88;;;19.80;51.12
74893;BME280;63446;56.272;43.922;2023-06-24T12:42:06;100365.28;;;19.67;51.18
74893;BME280;63446;56.272;43.922;2023-06-24T12:44:32;100373.38;;;19.58;50.98
74893;BME280;63446;56.272;43.922;2023-06-24T12:46:58;100372.34;;;19.50;51.25
74893;BME280;63446;56.272;43.922;2023-06-24T12:49:23;100373.06;;;19.39;51.37
74893;BME280;63446;56.272;43.922;2023-06-24T12:51:49;100376.09;;;19.37;51.53
74893;BME280;63446;56.272;43.922;2023-06-24T12:54:15;100363.38;;;19.25;52.12
74893;BME280;63446;56.272;43.922;2023-06-24T12:56:41;100402.28;;;19.11;52.39
74893;BME280;63446;56.272;43.922;2023-06-24T12:59:07;100371.97;;;18.89;52.42